MOL Paramount — 3ECH9 — position and weather

sailwx.info

Track history (hours):
 
Tides and Currents Weather Stations Pressure Air Temp Water Temp Dewpoint Dewpoint Depression Visibility Wind Speed Wind Dir Waves Ship Positions

MOL Paramount

Last reported at 2016-May-01 08:33 UTC. Time now 2016-May-01 11:46 UTC.
Position N 01°12' E 103°38'.

Length 293 m; draft 13.8 m.

Type: Cargo ship. MMSI: 371519000.

Date/timePositionNaut miles runAvg speedWind from/ knotsBaromVisibWave heightAir tempDewpointWater temp
2016-May-01 08:33N 01°12' E 103°38'8 7.9
2016-May-01 07:33N 01°16' E 103°44'2 1.5
2016-May-01 06:32N 01°16' E 103°46'0 0.0
2016-May-01 05:32N 01°16' E 103°46'0 0.0
2016-May-01 04:23N 01°16' E 103°46'0 0.0
2016-May-01 03:32N 01°16' E 103°46'0 0.0
2016-May-01 02:32N 01°16' E 103°46'0 0.0
2016-May-01 01:32N 01°16' E 103°46'0 0.0
2016-May-01 00:32N 01°16' E 103°46'0 0.0
2016-Apr-30 23:29N 01°16' E 103°46'0 0.0
2016-Apr-30 22:32N 01°16' E 103°46'0 0.0
2016-Apr-30 21:32N 01°16' E 103°46'0 0.0
2016-Apr-30 20:29N 01°16' E 103°46'0 0.0
2016-Apr-30 19:29N 01°16' E 103°46'0 0.0
2016-Apr-30 18:32N 01°16' E 103°46'0 0.0
2016-Apr-30 17:32N 01°16' E 103°46'0 0.0
2016-Apr-30 16:26N 01°16' E 103°46'0 0.0
2016-Apr-30 15:32N 01°16' E 103°46'0 0.0
2016-Apr-30 14:29N 01°16' E 103°46'0 0.0
2016-Apr-30 13:29N 01°16' E 103°46'0 0.0
2016-Apr-30 12:23N 01°16' E 103°46'0 0.4
2016-Apr-30 11:33N 01°16' E 103°46'0 0.2
2016-Apr-30 10:28N 01°16' E 103°46'0 0.0
2016-Apr-30 09:28N 01°16' E 103°46'0 0.1
2016-Apr-30 08:31N 01°16' E 103°46'0 0.1
2016-Apr-30 07:31N 01°16' E 103°46'0 0.0
2016-Apr-30 06:31N 01°16' E 103°46'0 0.0
2016-Apr-30 05:31N 01°16' E 103°46'0 0.0
2016-Apr-30 04:31N 01°16' E 103°46'0 0.0
2016-Apr-30 03:31N 01°16' E 103°46'0 0.0
2016-Apr-30 02:31N 01°16' E 103°46'0 0.0
2016-Apr-30 01:28N 01°16' E 103°46'0 0.0
2016-Apr-30 00:31N 01°16' E 103°46'0 0.0
2016-Apr-29 23:28N 01°16' E 103°46'1 0.8
2016-Apr-29 22:33N 01°16' E 103°47'4 3.5
2016-Apr-29 21:31N 01°13' E 103°49'0 0.1
2016-Apr-29 20:33N 01°13' E 103°49'0 0.0
2016-Apr-29 19:33N 01°13' E 103°49'2 1.7
2016-Apr-29 18:33N 01°12' E 103°51'6 5.8
2016-Apr-29 17:33N 01°14' E 103°56'9 9.0
2016-Apr-29 16:32N 01°16' E 104°05'  
2016-Apr-22 11:33S 32°03' E 115°44'1 0.6
2016-Apr-22 10:32S 32°03' E 115°45'0 0.0
2016-Apr-22 09:32S 32°03' E 115°45'0 0.0
2016-Apr-22 08:32S 32°03' E 115°45'0 0.0
2016-Apr-22 07:32S 32°03' E 115°45'0 0.0
2016-Apr-22 06:32S 32°03' E 115°45'0 0.0
2016-Apr-22 05:32S 32°03' E 115°45'0 0.0
2016-Apr-22 04:32S 32°03' E 115°45'0 0.0
2016-Apr-22 03:32S 32°03' E 115°45'0 0.0
2016-Apr-22 02:32S 32°03' E 115°45'0 0.0
2016-Apr-22 01:32S 32°03' E 115°45'0 0.0
2016-Apr-22 00:32S 32°03' E 115°45'0 0.0
2016-Apr-21 23:32S 32°03' E 115°45'0 0.0
2016-Apr-21 22:32S 32°03' E 115°45'0 0.0
2016-Apr-21 21:32S 32°03' E 115°45'0 0.0
2016-Apr-21 20:32S 32°03' E 115°45'0 0.0
2016-Apr-21 19:32S 32°03' E 115°45'0 0.0
2016-Apr-21 18:32S 32°03' E 115°45'0 0.0
2016-Apr-21 17:32S 32°03' E 115°45'0 0.0
2016-Apr-21 16:32S 32°03' E 115°45'0 0.0
2016-Apr-21 15:32S 32°03' E 115°45'0 0.0
2016-Apr-21 14:29S 32°03' E 115°45'0 0.0
2016-Apr-21 13:32S 32°03' E 115°45'0 0.0
2016-Apr-21 12:32S 32°03' E 115°45'0 0.0
2016-Apr-21 10:11S 32°03' E 115°45'0 0.0
2016-Apr-21 09:32S 32°03' E 115°45'  
Track history (hours):
 
Tides and Currents Weather Stations Pressure Air Temp Water Temp Dewpoint Dewpoint Depression Visibility Wind Speed Wind Dir Waves Ship Positions

MOL Paramount

Last reported at 2016-May-01 08:33 UTC. Time now 2016-May-01 11:46 UTC.
Position N 01°12' E 103°38'.

Length 293 m; draft 13.8 m.

Type: Cargo ship. MMSI: 371519000.

Date/timePositionNaut miles runAvg speedWind from/ knotsBaromVisibWave heightAir tempDewpointWater temp
2016-May-01 08:33N 01°12' E 103°38'8 7.9
2016-May-01 07:33N 01°16' E 103°44'2 1.5
2016-May-01 06:32N 01°16' E 103°46'0 0.0
2016-May-01 05:32N 01°16' E 103°46'0 0.0
2016-May-01 04:23N 01°16' E 103°46'0 0.0
2016-May-01 03:32N 01°16' E 103°46'0 0.0
2016-May-01 02:32N 01°16' E 103°46'0 0.0
2016-May-01 01:32N 01°16' E 103°46'0 0.0
2016-May-01 00:32N 01°16' E 103°46'0 0.0
2016-Apr-30 23:29N 01°16' E 103°46'0 0.0
2016-Apr-30 22:32N 01°16' E 103°46'0 0.0
2016-Apr-30 21:32N 01°16' E 103°46'0 0.0
2016-Apr-30 20:29N 01°16' E 103°46'0 0.0
2016-Apr-30 19:29N 01°16' E 103°46'0 0.0
2016-Apr-30 18:32N 01°16' E 103°46'0 0.0
2016-Apr-30 17:32N 01°16' E 103°46'0 0.0
2016-Apr-30 16:26N 01°16' E 103°46'0 0.0
2016-Apr-30 15:32N 01°16' E 103°46'0 0.0
2016-Apr-30 14:29N 01°16' E 103°46'0 0.0
2016-Apr-30 13:29N 01°16' E 103°46'0 0.0
2016-Apr-30 12:23N 01°16' E 103°46'0 0.4
2016-Apr-30 11:33N 01°16' E 103°46'0 0.2
2016-Apr-30 10:28N 01°16' E 103°46'0 0.0
2016-Apr-30 09:28N 01°16' E 103°46'0 0.1
2016-Apr-30 08:31N 01°16' E 103°46'0 0.1
2016-Apr-30 07:31N 01°16' E 103°46'0 0.0
2016-Apr-30 06:31N 01°16' E 103°46'0 0.0
2016-Apr-30 05:31N 01°16' E 103°46'0 0.0
2016-Apr-30 04:31N 01°16' E 103°46'0 0.0
2016-Apr-30 03:31N 01°16' E 103°46'0 0.0
2016-Apr-30 02:31N 01°16' E 103°46'0 0.0
2016-Apr-30 01:28N 01°16' E 103°46'0 0.0
2016-Apr-30 00:31N 01°16' E 103°46'0 0.0
2016-Apr-29 23:28N 01°16' E 103°46'1 0.8
2016-Apr-29 22:33N 01°16' E 103°47'4 3.5
2016-Apr-29 21:31N 01°13' E 103°49'0 0.1
2016-Apr-29 20:33N 01°13' E 103°49'0 0.0
2016-Apr-29 19:33N 01°13' E 103°49'2 1.7
2016-Apr-29 18:33N 01°12' E 103°51'6 5.8
2016-Apr-29 17:33N 01°14' E 103°56'9 9.0
2016-Apr-29 16:32N 01°16' E 104°05'  
2016-Apr-22 11:33S 32°03' E 115°44'1 0.6
2016-Apr-22 10:32S 32°03' E 115°45'0 0.0
2016-Apr-22 09:32S 32°03' E 115°45'0 0.0
2016-Apr-22 08:32S 32°03' E 115°45'0 0.0
2016-Apr-22 07:32S 32°03' E 115°45'0 0.0
2016-Apr-22 06:32S 32°03' E 115°45'0 0.0
2016-Apr-22 05:32S 32°03' E 115°45'0 0.0
2016-Apr-22 04:32S 32°03' E 115°45'0 0.0
2016-Apr-22 03:32S 32°03' E 115°45'0 0.0
2016-Apr-22 02:32S 32°03' E 115°45'0 0.0
2016-Apr-22 01:32S 32°03' E 115°45'0 0.0
2016-Apr-22 00:32S 32°03' E 115°45'0 0.0
2016-Apr-21 23:32S 32°03' E 115°45'0 0.0
2016-Apr-21 22:32S 32°03' E 115°45'0 0.0
2016-Apr-21 21:32S 32°03' E 115°45'0 0.0
2016-Apr-21 20:32S 32°03' E 115°45'0 0.0
2016-Apr-21 19:32S 32°03' E 115°45'0 0.0
2016-Apr-21 18:32S 32°03' E 115°45'0 0.0
2016-Apr-21 17:32S 32°03' E 115°45'0 0.0
2016-Apr-21 16:32S 32°03' E 115°45'0 0.0
2016-Apr-21 15:32S 32°03' E 115°45'0 0.0
2016-Apr-21 14:29S 32°03' E 115°45'0 0.0
2016-Apr-21 13:32S 32°03' E 115°45'0 0.0
2016-Apr-21 12:32S 32°03' E 115°45'0 0.0
2016-Apr-21 10:11S 32°03' E 115°45'0 0.0
2016-Apr-21 09:32S 32°03' E 115°45'  

Dump ship's entire track history